createdAt,value
2019-02-17T00:00:34.274Z,6.93
2019-02-17T00:03:02.981Z,6.90
2019-02-17T00:05:31.804Z,6.86
2019-02-17T00:08:00.518Z,6.77
2019-02-17T00:10:29.016Z,6.71
2019-02-17T00:12:57.458Z,6.56
2019-02-17T00:15:26.224Z,6.37
2019-02-17T00:17:55.174Z,6.35
2019-02-17T00:20:25.311Z,6.29
2019-02-17T00:22:53.752Z,6.15
2019-02-17T00:25:22.467Z,6.09
2019-02-17T00:27:51.425Z,5.95
2019-02-17T00:30:19.891Z,5.93
2019-02-17T00:32:48.338Z,5.24
2019-02-17T00:35:17.169Z,5.72
2019-02-17T00:37:45.855Z,5.79
2019-02-17T00:40:14.314Z,5.74
2019-02-17T00:42:43.083Z,5.75
2019-02-17T00:45:11.578Z,5.75
2019-02-17T00:47:40.527Z,5.72
2019-02-17T00:50:09.014Z,5.74
2019-02-17T00:52:37.477Z,5.72
2019-02-17T00:55:06.015Z,5.69
2019-02-17T00:57:34.478Z,5.70
2019-02-17T01:00:02.910Z,5.68
2019-02-17T01:02:31.428Z,5.68
2019-02-17T01:05:00.220Z,5.63
2019-02-17T01:07:28.872Z,5.61
2019-02-17T01:09:57.363Z,5.56
2019-02-17T01:12:25.856Z,5.54
2019-02-17T01:14:54.339Z,5.48
2019-02-17T01:17:22.893Z,5.45
2019-02-17T01:19:51.801Z,5.39
2019-02-17T01:22:20.301Z,5.37
2019-02-17T01:24:49.008Z,5.35
2019-02-17T01:27:17.979Z,5.34
2019-02-17T01:29:46.930Z,5.37
2019-02-17T01:32:15.734Z,5.38
2019-02-17T01:34:44.198Z,5.37
2019-02-17T01:37:12.705Z,5.36
2019-02-17T01:39:41.138Z,5.30
2019-02-17T01:42:09.617Z,5.20
2019-02-17T01:44:38.586Z,5.15
2019-02-17T01:47:07.073Z,5.15
2019-02-17T01:49:35.536Z,5.13
2019-02-17T01:52:04.161Z,5.14
2019-02-17T01:54:32.676Z,5.12
2019-02-17T01:57:01.393Z,5.13
2019-02-17T01:59:30.954Z,5.17
2019-02-17T02:01:59.747Z,5.15
2019-02-17T02:04:28.498Z,5.13
2019-02-17T02:06:57.197Z,5.11
2019-02-17T02:09:25.756Z,5.10
2019-02-17T02:11:54.699Z,5.07
2019-02-17T02:14:23.218Z,5.03
2019-02-17T02:16:54.069Z,5.02
2019-02-17T02:19:22.540Z,4.99
2019-02-17T02:21:50.991Z,5.00
2019-02-17T02:24:19.692Z,5.00
2019-02-17T02:26:48.182Z,4.99
2019-02-17T02:29:16.711Z,4.97
2019-02-17T02:31:45.514Z,5.08
2019-02-17T02:34:14.471Z,5.05
2019-02-17T02:36:42.923Z,5.05
2019-02-17T02:39:11.851Z,5.06
2019-02-17T02:41:40.582Z,5.08
2019-02-17T02:44:09.506Z,5.07
2019-02-17T02:46:37.973Z,5.01
2019-02-17T02:49:06.416Z,4.93
2019-02-17T02:51:34.877Z,4.90
2019-02-17T02:54:03.345Z,4.91
2019-02-17T02:56:31.788Z,4.86
2019-02-17T02:59:00.509Z,4.85
2019-02-17T03:01:29.027Z,4.81
2019-02-17T03:03:57.739Z,4.75
2019-02-17T03:06:47.932Z,4.71
2019-02-17T03:09:16.390Z,4.60
2019-02-17T03:11:45.338Z,4.53
2019-02-17T03:14:14.058Z,4.44
2019-02-17T03:16:42.761Z,4.39
2019-02-17T03:19:11.501Z,4.38
2019-02-17T03:21:40.246Z,4.40
2019-02-17T03:24:08.655Z,4.43
2019-02-17T03:26:37.107Z,4.47
2019-02-17T03:29:05.827Z,4.49
2019-02-17T03:31:34.555Z,4.49
2019-02-17T03:34:03.454Z,4.48
2019-02-17T03:36:31.893Z,4.53
2019-02-17T03:39:00.348Z,4.54
2019-02-17T03:41:28.810Z,4.56
2019-02-17T03:43:57.303Z,4.59
2019-02-17T03:46:25.718Z,4.52
2019-02-17T03:48:54.435Z,4.52
2019-02-17T03:51:23.147Z,4.44
2019-02-17T03:53:51.842Z,4.44
2019-02-17T03:56:20.556Z,4.42
2019-02-17T03:58:49.026Z,4.44
2019-02-17T04:01:17.707Z,4.48
2019-02-17T04:03:46.408Z,4.38
2019-02-17T04:06:14.904Z,4.28
2019-02-17T04:08:43.583Z,4.23
2019-02-17T04:11:12.080Z,4.28
2019-02-17T04:13:40.773Z,4.32
2019-02-17T04:16:09.522Z,4.37
2019-02-17T04:18:38.217Z,4.39
2019-02-17T04:21:06.685Z,4.40
2019-02-17T04:23:35.379Z,4.39
2019-02-17T04:26:03.861Z,4.38
2019-02-17T04:28:32.542Z,4.36
2019-02-17T04:31:01.004Z,4.31
2019-02-17T04:33:29.948Z,4.28
2019-02-17T04:35:58.394Z,4.25
2019-02-17T04:38:26.862Z,4.29
2019-02-17T04:40:55.315Z,4.28
2019-02-17T04:43:23.798Z,4.26
2019-02-17T04:45:52.564Z,4.26
2019-02-17T04:48:21.285Z,4.26
2019-02-17T04:50:50.072Z,4.24
2019-02-17T04:53:18.746Z,4.22
2019-02-17T04:55:47.440Z,4.24
2019-02-17T04:58:15.871Z,4.28
2019-02-17T05:00:44.329Z,4.28
2019-02-17T05:03:12.769Z,4.26
2019-02-17T05:05:41.365Z,4.22
2019-02-17T05:08:09.761Z,4.22
2019-02-17T05:10:38.234Z,4.27
2019-02-17T05:13:06.893Z,4.29
2019-02-17T05:15:35.995Z,4.25
2019-02-17T05:18:04.435Z,4.27
2019-02-17T05:20:32.907Z,4.36
2019-02-17T05:23:01.636Z,4.48
2019-02-17T05:25:30.099Z,4.56
2019-02-17T05:27:58.568Z,4.65
2019-02-17T05:30:27.028Z,4.72
2019-02-17T05:32:55.483Z,4.74
2019-02-17T05:35:24.210Z,4.79
2019-02-17T05:37:53.160Z,4.79
2019-02-17T05:40:22.106Z,4.82
2019-02-17T05:42:50.818Z,4.83
2019-02-17T05:45:19.313Z,4.82
2019-02-17T05:47:47.995Z,4.81
2019-02-17T05:50:16.487Z,4.79
2019-02-17T05:52:45.178Z,4.72
2019-02-17T05:55:13.618Z,4.70
2019-02-17T05:57:42.072Z,4.72
2019-02-17T06:00:11.601Z,4.64
2019-02-17T06:02:41.724Z,4.65
2019-02-17T06:05:10.399Z,4.46
2019-02-17T06:07:39.147Z,4.58
2019-02-17T06:10:08.642Z,4.59
2019-02-17T06:12:37.430Z,4.70
2019-02-17T06:15:05.980Z,4.56
2019-02-17T06:17:34.880Z,4.64
2019-02-17T06:20:03.348Z,4.68
2019-02-17T06:22:31.801Z,4.53
2019-02-17T06:25:00.488Z,4.55
2019-02-17T06:27:29.423Z,4.55
2019-02-17T06:29:58.340Z,4.53
2019-02-17T06:32:26.802Z,4.71
2019-02-17T06:34:55.264Z,4.74
2019-02-17T06:37:23.725Z,4.72
2019-02-17T06:39:52.214Z,4.53
2019-02-17T06:42:20.909Z,4.64
2019-02-17T06:44:49.400Z,4.57
2019-02-17T06:50:07.752Z,4.43
2019-02-17T06:52:36.459Z,4.32
2019-02-17T06:55:15.475Z,4.48
2019-02-17T06:57:43.951Z,4.56
2019-02-17T07:00:19.803Z,4.58
2019-02-17T07:02:49.048Z,4.44
2019-02-17T07:05:35.471Z,4.36
2019-02-17T07:08:04.235Z,4.47
2019-02-17T07:10:33.493Z,4.40
2019-02-17T07:13:01.965Z,4.41
2019-02-17T07:15:30.401Z,4.44
2019-02-17T07:17:59.367Z,4.52
2019-02-17T07:20:28.441Z,4.62
2019-02-17T07:22:57.741Z,4.73
2019-02-17T07:25:30.125Z,4.78
2019-02-17T07:27:56.689Z,4.88
2019-02-17T07:30:25.201Z,4.80
2019-02-17T07:32:53.739Z,4.82
2019-02-17T07:35:22.264Z,4.82
2019-02-17T07:37:50.712Z,4.93
2019-02-17T07:40:19.496Z,4.94
2019-02-17T07:42:48.186Z,5.00
2019-02-17T07:45:16.630Z,5.03
2019-02-17T07:47:45.098Z,5.20
2019-02-17T07:50:13.793Z,5.21
2019-02-17T07:52:42.494Z,5.28
2019-02-17T07:55:10.981Z,5.38
2019-02-17T07:57:39.776Z,5.40
2019-02-17T08:00:08.840Z,5.46
2019-02-17T08:02:37.642Z,5.43
2019-02-17T08:05:06.419Z,5.50
2019-02-17T08:07:35.214Z,5.61
2019-02-17T08:10:03.790Z,5.77
2019-02-17T08:12:32.241Z,5.86
2019-02-17T08:15:00.704Z,5.88
2019-02-17T08:17:29.134Z,6.03
2019-02-17T08:19:57.840Z,6.09
2019-02-17T08:22:26.519Z,6.17
2019-02-17T08:24:54.997Z,6.28
2019-02-17T08:27:23.713Z,6.43
2019-02-17T08:29:52.426Z,6.48
2019-02-17T08:32:21.140Z,6.47
2019-02-17T08:34:49.676Z,6.61
2019-02-17T08:37:18.426Z,6.65
2019-02-17T08:39:50.083Z,6.72
2019-02-17T08:42:18.912Z,6.86
2019-02-17T08:44:47.381Z,6.86
2019-02-17T08:47:15.823Z,6.90
2019-02-17T08:49:45.349Z,6.90
2019-02-17T08:52:13.813Z,6.98
2019-02-17T08:54:42.584Z,7.09
2019-02-17T08:57:11.313Z,7.18
2019-02-17T08:59:39.759Z,7.22
2019-02-17T09:02:08.584Z,7.38
2019-02-17T09:04:37.269Z,7.59
2019-02-17T09:07:06.469Z,7.74
2019-02-17T09:09:34.968Z,7.83
2019-02-17T09:12:03.657Z,7.94
2019-02-17T09:14:32.600Z,8.04
2019-02-17T09:17:02.665Z,8.13
2019-02-17T09:19:31.150Z,8.23
2019-02-17T09:21:59.875Z,8.25
2019-02-17T09:24:28.339Z,8.32
2019-02-17T09:26:57.270Z,8.38
2019-02-17T09:29:25.900Z,8.59
2019-02-17T09:31:55.783Z,8.66
2019-02-17T09:34:24.247Z,8.74
2019-02-17T09:36:52.943Z,8.71
2019-02-17T09:39:21.400Z,8.78
2019-02-17T09:41:49.861Z,8.92
2019-02-17T09:44:18.849Z,9.01
2019-02-17T09:46:47.373Z,9.08
2019-02-17T09:49:15.790Z,9.21
2019-02-17T09:51:44.254Z,9.44
2019-02-17T09:54:12.690Z,9.43
2019-02-17T09:56:41.156Z,9.50
2019-02-17T09:59:09.626Z,9.60
2019-02-17T10:01:38.355Z,9.70
2019-02-17T10:04:06.803Z,9.83
2019-02-17T10:06:35.283Z,9.89
2019-02-17T10:09:05.216Z,9.96
2019-02-17T10:11:33.683Z,10.06
2019-02-17T10:14:02.158Z,10.16
2019-02-17T10:16:30.601Z,10.08
2019-02-17T10:18:59.089Z,10.12
2019-02-17T10:21:27.800Z,10.22
2019-02-17T10:23:56.273Z,10.25
2019-02-17T10:26:24.752Z,10.30
2019-02-17T10:28:53.454Z,10.50
2019-02-17T10:31:21.923Z,10.60
2019-02-17T10:33:50.855Z,10.61
2019-02-17T10:36:19.318Z,10.74
2019-02-17T10:38:47.753Z,10.80
2019-02-17T10:41:18.798Z,10.99
2019-02-17T10:43:47.494Z,11.17
2019-02-17T10:46:16.218Z,11.18
2019-02-17T10:48:44.934Z,11.18
2019-02-17T10:51:13.647Z,11.18
2019-02-17T10:53:42.350Z,11.22
2019-02-17T10:56:10.808Z,11.38
2019-02-17T10:58:39.525Z,11.38
2019-02-17T11:01:07.987Z,11.58
2019-02-17T11:03:36.559Z,11.55
2019-02-17T11:06:05.041Z,11.64
2019-02-17T11:08:33.738Z,11.58
2019-02-17T11:11:02.429Z,11.70
2019-02-17T11:13:30.880Z,11.67
2019-02-17T11:15:59.594Z,11.68
2019-02-17T11:18:28.048Z,11.78
2019-02-17T11:20:56.627Z,11.77
2019-02-17T11:23:25.552Z,11.84
2019-02-17T11:25:54.052Z,11.93
2019-02-17T11:28:22.536Z,11.91
2019-02-17T11:30:51.023Z,11.99
2019-02-17T11:33:19.496Z,11.99
2019-02-17T11:35:48.411Z,12.15
2019-02-17T11:38:16.918Z,12.20
2019-02-17T11:40:45.363Z,12.19
2019-02-17T11:43:13.856Z,12.21
2019-02-17T11:45:42.548Z,12.08
2019-02-17T11:48:11.559Z,12.21
2019-02-17T11:50:40.009Z,12.18
2019-02-17T11:53:08.648Z,12.22
2019-02-17T11:55:37.101Z,12.19
2019-02-17T11:58:05.577Z,12.27
2019-02-17T12:00:34.312Z,12.32
2019-02-17T12:03:08.132Z,12.35
2019-02-17T12:05:33.306Z,12.36
2019-02-17T12:08:01.809Z,12.51
2019-02-17T12:10:30.333Z,12.65
2019-02-17T12:12:58.790Z,12.69
2019-02-17T12:15:27.561Z,12.71
2019-02-17T12:17:56.514Z,12.76
2019-02-17T12:20:56.180Z,12.69
2019-02-17T12:23:29.654Z,12.67
2019-02-17T12:26:02.152Z,12.87
2019-02-17T12:28:35.389Z,13.08
2019-02-17T12:31:04.348Z,13.18
2019-02-17T12:33:32.850Z,13.37
2019-02-17T12:36:01.664Z,13.40
2019-02-17T12:38:30.385Z,13.46
2019-02-17T12:40:58.860Z,13.49
2019-02-17T12:43:27.335Z,13.52
2019-02-17T12:45:55.801Z,13.42
2019-02-17T12:48:24.254Z,13.50
2019-02-17T12:50:52.711Z,13.53
2019-02-17T12:53:21.165Z,13.50
2019-02-17T12:55:49.895Z,13.61
2019-02-17T12:58:20.147Z,13.61
2019-02-17T13:00:49.097Z,13.59
2019-02-17T13:03:17.562Z,13.60
2019-02-17T13:05:46.351Z,13.49
2019-02-17T13:08:14.859Z,13.48
2019-02-17T13:10:43.349Z,13.40
2019-02-17T13:13:11.835Z,13.45
2019-02-17T13:15:40.274Z,13.37
2019-02-17T13:18:08.745Z,13.34
2019-02-17T13:20:37.226Z,13.28
2019-02-17T13:23:05.792Z,13.24
2019-02-17T13:25:34.261Z,13.27
2019-02-17T13:28:03.020Z,13.23
2019-02-17T13:30:31.714Z,13.20
2019-02-17T13:33:01.492Z,13.20
2019-02-17T13:35:30.193Z,13.32
2019-02-17T13:37:59.145Z,13.31
2019-02-17T13:40:27.634Z,13.28
2019-02-17T13:42:56.132Z,13.32
2019-02-17T13:45:24.586Z,13.29
2019-02-17T13:47:53.383Z,13.25
2019-02-17T13:50:22.164Z,13.27
2019-02-17T13:52:50.661Z,13.25
2019-02-17T13:55:19.348Z,13.31
2019-02-17T13:57:47.830Z,13.26
2019-02-17T14:00:16.310Z,13.29
2019-02-17T14:02:45.024Z,13.28
2019-02-17T14:05:13.493Z,13.28
2019-02-17T14:07:41.970Z,13.33
2019-02-17T14:10:10.647Z,13.24
2019-02-17T14:12:39.595Z,13.26
2019-02-17T14:15:10.592Z,13.17
2019-02-17T14:17:39.303Z,13.13
2019-02-17T14:20:08.670Z,13.10
2019-02-17T14:22:40.414Z,13.13
2019-02-17T14:25:10.982Z,13.09
2019-02-17T14:27:39.579Z,13.08
2019-02-17T14:30:10.319Z,13.12
2019-02-17T14:32:39.916Z,13.13
2019-02-17T14:35:08.998Z,13.12
2019-02-17T14:37:37.466Z,13.08
2019-02-17T14:40:05.984Z,13.02
2019-02-17T14:42:34.440Z,13.14
2019-02-17T14:45:02.940Z,13.14
2019-02-17T14:47:31.646Z,13.11
2019-02-17T14:50:00.350Z,13.08
2019-02-17T14:52:28.808Z,13.08
2019-02-17T14:54:57.317Z,13.02
2019-02-17T14:57:26.016Z,12.99
2019-02-17T14:59:55.075Z,13.00
2019-02-17T15:02:23.725Z,13.01
2019-02-17T15:04:52.423Z,13.04
2019-02-17T15:07:23.889Z,13.00
2019-02-17T15:09:52.340Z,12.99
2019-02-17T15:12:20.821Z,12.96
2019-02-17T15:14:52.168Z,12.94
2019-02-17T15:17:20.624Z,12.84
2019-02-17T15:19:49.105Z,12.79
2019-02-17T15:22:17.544Z,12.69
2019-02-17T15:24:46.003Z,12.69
2019-02-17T15:27:14.753Z,12.66
2019-02-17T15:29:43.506Z,12.64
2019-02-17T15:32:12.190Z,12.61
2019-02-17T15:34:41.796Z,12.64
2019-02-17T15:37:10.281Z,12.62
2019-02-17T15:39:38.996Z,12.58
2019-02-17T15:42:07.463Z,12.55
2019-02-17T15:44:35.934Z,12.50
2019-02-17T15:47:04.396Z,12.48
2019-02-17T15:49:34.196Z,12.45
2019-02-17T15:52:02.672Z,12.46
2019-02-17T15:54:31.146Z,11.23
2019-02-17T15:56:59.876Z,12.37
2019-02-17T15:59:28.339Z,12.31
2019-02-17T16:01:56.785Z,12.23
2019-02-17T16:04:28.546Z,12.14
2019-02-17T16:06:55.993Z,12.15
2019-02-17T16:09:24.745Z,12.06
2019-02-17T16:11:53.215Z,12.00
2019-02-17T16:14:21.939Z,11.88
2019-02-17T16:16:50.702Z,11.91
2019-02-17T16:19:19.506Z,11.78
2019-02-17T16:21:48.120Z,11.79
2019-02-17T16:24:16.537Z,11.67
2019-02-17T16:26:45.019Z,11.73
2019-02-17T16:29:13.484Z,11.63
2019-02-17T16:31:41.961Z,11.57
2019-02-17T16:34:10.950Z,11.49
2019-02-17T16:36:39.431Z,11.51
2019-02-17T16:39:12.864Z,11.51
2019-02-17T16:41:41.819Z,11.49
2019-02-17T16:44:10.557Z,11.40
2019-02-17T16:46:39.254Z,11.33
2019-02-17T16:49:08.015Z,11.33
2019-02-17T16:51:36.496Z,11.35
2019-02-17T16:54:04.959Z,11.28
2019-02-17T16:56:33.738Z,11.32
2019-02-17T16:59:02.443Z,11.32
2019-02-17T17:01:32.726Z,11.35
2019-02-17T17:04:01.787Z,11.27
2019-02-17T17:06:30.264Z,11.21
2019-02-17T17:08:58.958Z,11.13
2019-02-17T17:11:29.017Z,11.09
2019-02-17T17:13:59.890Z,10.92
2019-02-17T17:16:28.385Z,10.92
2019-02-17T17:18:57.138Z,10.89
2019-02-17T17:21:25.687Z,10.79
2019-02-17T17:23:54.379Z,10.71
2019-02-17T17:26:22.895Z,10.73
2019-02-17T17:28:51.620Z,10.59
2019-02-17T17:31:20.375Z,10.59
2019-02-17T17:33:49.074Z,10.68
2019-02-17T17:36:17.759Z,10.55
2019-02-17T17:38:46.706Z,10.53
2019-02-17T17:41:15.205Z,10.49
2019-02-17T17:43:43.892Z,10.46
2019-02-17T17:46:12.593Z,10.45
2019-02-17T17:48:41.058Z,10.40
2019-02-17T17:51:09.766Z,10.44
2019-02-17T17:53:38.230Z,10.42
2019-02-17T17:56:06.727Z,10.39
2019-02-17T17:58:35.177Z,10.39
2019-02-17T18:01:03.641Z,10.37
2019-02-17T18:03:32.130Z,10.31
2019-02-17T18:06:00.657Z,10.30
2019-02-17T18:08:29.347Z,10.30
2019-02-17T18:10:57.814Z,10.25
2019-02-17T18:13:26.526Z,10.28
2019-02-17T18:15:55.214Z,10.23
2019-02-17T18:18:24.808Z,10.21
2019-02-17T18:20:53.594Z,10.22
2019-02-17T18:23:22.072Z,10.22
2019-02-17T18:25:50.805Z,10.17
2019-02-17T18:28:19.542Z,10.06
2019-02-17T18:30:48.041Z,10.02
2019-02-17T18:33:16.780Z,10.02
2019-02-17T18:35:45.236Z,10.01
2019-02-17T18:38:13.958Z,10.01
2019-02-17T18:40:44.986Z,9.96
2019-02-17T18:43:12.840Z,9.96
2019-02-17T18:45:41.286Z,9.91
2019-02-17T18:48:09.762Z,9.84
2019-02-17T18:50:38.468Z,9.82
2019-02-17T18:53:07.189Z,9.87
2019-02-17T18:55:35.660Z,9.88
2019-02-17T18:58:04.175Z,9.88
2019-02-17T19:00:32.858Z,9.82
2019-02-17T19:03:01.575Z,9.84
2019-02-17T19:05:32.243Z,9.88
2019-02-17T19:08:00.255Z,9.89
2019-02-17T19:10:28.956Z,9.88
2019-02-17T19:12:57.425Z,9.86
2019-02-17T19:15:25.877Z,9.89
2019-02-17T19:17:54.369Z,9.88
2019-02-17T19:20:23.057Z,9.89
2019-02-17T19:22:51.524Z,9.84
2019-02-17T19:25:20.253Z,9.82
2019-02-17T19:27:49.273Z,9.82
2019-02-17T19:30:17.980Z,9.77
2019-02-17T19:32:46.506Z,9.73
2019-02-17T19:35:14.988Z,9.72
2019-02-17T19:37:43.455Z,9.65
2019-02-17T19:40:12.275Z,9.69
2019-02-17T19:42:42.286Z,9.59
2019-02-17T19:45:13.014Z,9.65
2019-02-17T19:47:41.489Z,9.64
2019-02-17T19:50:10.883Z,9.69
2019-02-17T19:52:39.580Z,9.62
2019-02-17T19:55:08.517Z,9.57
2019-02-17T19:57:37.002Z,9.49
2019-02-17T20:00:06.182Z,9.44
2019-02-17T20:02:53.737Z,9.39
2019-02-17T20:05:25.253Z,9.36
2019-02-17T20:07:53.706Z,9.29
2019-02-17T20:10:22.538Z,9.25
2019-02-17T20:12:51.268Z,9.16
2019-02-17T20:15:20.841Z,9.11
2019-02-17T20:17:49.290Z,9.05
2019-02-17T20:20:18.002Z,9.02
2019-02-17T20:22:46.731Z,9.03
2019-02-17T20:25:15.446Z,9.02
2019-02-17T20:27:44.280Z,9.07
2019-02-17T20:30:13.031Z,9.10
2019-02-17T20:32:42.005Z,9.06
2019-02-17T20:35:10.466Z,9.04
2019-02-17T20:37:39.255Z,9.05
2019-02-17T20:40:07.992Z,9.00
2019-02-17T20:42:36.728Z,8.99
2019-02-17T20:45:05.517Z,8.99
2019-02-17T20:47:34.259Z,8.97
2019-02-17T20:50:05.639Z,8.98
2019-02-17T20:52:35.742Z,8.94
2019-02-17T20:55:04.553Z,8.95
2019-02-17T20:57:33.012Z,8.90
2019-02-17T21:00:01.739Z,8.88
2019-02-17T21:02:30.227Z,8.86
2019-02-17T21:04:58.730Z,8.89
2019-02-17T21:07:27.222Z,8.87
2019-02-17T21:09:55.946Z,8.82
2019-02-17T21:12:24.434Z,8.75
2019-02-17T21:14:52.934Z,8.72
2019-02-17T21:17:21.637Z,8.67
2019-02-17T21:19:50.360Z,8.62
2019-02-17T21:22:18.813Z,8.62
2019-02-17T21:24:47.291Z,8.66
2019-02-17T21:27:15.728Z,8.62
2019-02-17T21:29:44.248Z,8.59
2019-02-17T21:32:12.952Z,8.55
2019-02-17T21:34:41.695Z,8.57
2019-02-17T21:37:10.141Z,8.50
2019-02-17T21:39:38.614Z,8.49
2019-02-17T21:42:07.104Z,8.47
2019-02-17T21:44:35.578Z,8.50
2019-02-17T21:47:04.040Z,8.50
2019-02-17T21:49:32.766Z,8.47
2019-02-17T21:52:01.739Z,8.44
2019-02-17T21:54:30.216Z,8.40
2019-02-17T21:56:58.691Z,8.33
2019-02-17T21:59:27.186Z,8.26
2019-02-17T22:01:55.670Z,8.14
2019-02-17T22:04:24.135Z,8.13
2019-02-17T22:06:52.826Z,8.07
2019-02-17T22:09:21.539Z,8.02
2019-02-17T22:11:49.997Z,7.94
2019-02-17T22:14:19.735Z,8.03
2019-02-17T22:16:48.191Z,7.88
2019-02-17T22:19:16.999Z,7.83
2019-02-17T22:21:45.652Z,7.86
2019-02-17T22:24:14.403Z,7.87
2019-02-17T22:26:42.877Z,7.84
2019-02-17T22:29:12.846Z,7.79
2019-02-17T22:31:41.661Z,7.68
2019-02-17T22:34:10.439Z,7.59
2019-02-17T22:36:43.824Z,7.52
2019-02-17T22:39:09.625Z,7.52
2019-02-17T22:41:38.107Z,7.51
2019-02-17T22:44:06.594Z,7.54
2019-02-17T22:46:35.299Z,7.40
2019-02-17T22:49:03.833Z,7.46
2019-02-17T22:51:32.550Z,7.35
2019-02-17T22:54:01.075Z,7.39
2019-02-17T22:56:30.836Z,7.30
2019-02-17T22:58:59.328Z,7.35
2019-02-17T23:01:31.546Z,7.30
2019-02-17T23:04:02.274Z,7.33
2019-02-17T23:06:33.404Z,7.38
2019-02-17T23:09:01.876Z,7.51
2019-02-17T23:11:30.349Z,7.48
2019-02-17T23:13:59.061Z,7.46
2019-02-17T23:16:27.800Z,7.50
2019-02-17T23:18:56.379Z,7.52
2019-02-17T23:21:25.190Z,7.52
2019-02-17T23:23:53.673Z,7.53
2019-02-17T23:26:22.164Z,7.59
2019-02-17T23:28:52.747Z,7.60
2019-02-17T23:31:22.053Z,7.57
2019-02-17T23:33:50.547Z,7.58
2019-02-17T23:36:19.039Z,7.62
2019-02-17T23:38:48.009Z,7.61
2019-02-17T23:41:16.785Z,7.70
2019-02-17T23:43:45.268Z,7.73
2019-02-17T23:46:13.741Z,7.76
2019-02-17T23:48:42.233Z,7.78
2019-02-17T23:51:10.710Z,7.82
2019-02-17T23:53:39.448Z,7.83
2019-02-17T23:56:07.924Z,7.83
2019-02-17T23:58:36.479Z,7.84
